sensor_id;sensor_type;location;lat;lon;timestamp;P1;durP1;ratioP1;P2;durP2;ratioP2
21299;SDS011;10809;49.476;11.016;2022-11-21T00:02:07;1.70;;;0.90;;
21299;SDS011;10809;49.476;11.016;2022-11-21T00:04:38;0.70;;;0.70;;
21299;SDS011;10809;49.476;11.016;2022-11-21T00:07:08;0.57;;;0.57;;
21299;SDS011;10809;49.476;11.016;2022-11-21T00:09:38;1.03;;;0.80;;
21299;SDS011;10809;49.476;11.016;2022-11-21T00:12:09;0.60;;;0.60;;
21299;SDS011;10809;49.476;11.016;2022-11-21T00:14:39;0.97;;;0.63;;
21299;SDS011;10809;49.476;11.016;2022-11-21T00:17:09;1.43;;;0.73;;
21299;SDS011;10809;49.476;11.016;2022-11-21T00:19:40;1.70;;;0.90;;
21299;SDS011;10809;49.476;11.016;2022-11-21T00:22:10;0.90;;;0.83;;
21299;SDS011;10809;49.476;11.016;2022-11-21T00:24:40;0.90;;;0.80;;
21299;SDS011;10809;49.476;11.016;2022-11-21T00:27:11;1.00;;;0.80;;
21299;SDS011;10809;49.476;11.016;2022-11-21T00:29:41;0.77;;;0.77;;
21299;SDS011;10809;49.476;11.016;2022-11-21T00:32:11;0.73;;;0.70;;
21299;SDS011;10809;49.476;11.016;2022-11-21T00:34:42;0.70;;;0.70;;
21299;SDS011;10809;49.476;11.016;2022-11-21T00:37:12;0.67;;;0.67;;
21299;SDS011;10809;49.476;11.016;2022-11-21T00:39:43;2.97;;;1.00;;
21299;SDS011;10809;49.476;11.016;2022-11-21T00:42:13;2.27;;;0.70;;
21299;SDS011;10809;49.476;11.016;2022-11-21T00:44:43;1.87;;;0.80;;
21299;SDS011;10809;49.476;11.016;2022-11-21T00:47:14;1.73;;;0.87;;
21299;SDS011;10809;49.476;11.016;2022-11-21T00:49:44;2.60;;;1.07;;
21299;SDS011;10809;49.476;11.016;2022-11-21T00:52:15;2.17;;;1.13;;
21299;SDS011;10809;49.476;11.016;2022-11-21T00:54:46;2.53;;;1.40;;
21299;SDS011;10809;49.476;11.016;2022-11-21T00:57:16;2.67;;;1.07;;
21299;SDS011;10809;49.476;11.016;2022-11-21T00:59:46;4.20;;;0.97;;
21299;SDS011;10809;49.476;11.016;2022-11-21T01:02:17;3.80;;;1.10;;
21299;SDS011;10809;49.476;11.016;2022-11-21T01:04:47;1.17;;;0.90;;
21299;SDS011;10809;49.476;11.016;2022-11-21T01:07:17;1.40;;;0.80;;
21299;SDS011;10809;49.476;11.016;2022-11-21T01:09:48;1.20;;;0.57;;
21299;SDS011;10809;49.476;11.016;2022-11-21T01:12:18;0.83;;;0.70;;
21299;SDS011;10809;49.476;11.016;2022-11-21T01:14:48;2.97;;;1.13;;
21299;SDS011;10809;49.476;11.016;2022-11-21T01:17:19;2.77;;;0.80;;
21299;SDS011;10809;49.476;11.016;2022-11-21T01:19:50;3.27;;;1.40;;
21299;SDS011;10809;49.476;11.016;2022-11-21T01:22:20;0.83;;;0.60;;
21299;SDS011;10809;49.476;11.016;2022-11-21T01:24:50;2.97;;;0.70;;
21299;SDS011;10809;49.476;11.016;2022-11-21T01:27:21;4.33;;;1.00;;
21299;SDS011;10809;49.476;11.016;2022-11-21T01:29:51;0.80;;;0.80;;
21299;SDS011;10809;49.476;11.016;2022-11-21T01:32:21;1.00;;;0.63;;
21299;SDS011;10809;49.476;11.016;2022-11-21T01:34:52;2.00;;;1.03;;
21299;SDS011;10809;49.476;11.016;2022-11-21T01:37:22;1.37;;;0.77;;
21299;SDS011;10809;49.476;11.016;2022-11-21T01:39:52;3.27;;;1.47;;
21299;SDS011;10809;49.476;11.016;2022-11-21T01:42:24;1.97;;;0.70;;
21299;SDS011;10809;49.476;11.016;2022-11-21T01:44:54;3.23;;;1.40;;
21299;SDS011;10809;49.476;11.016;2022-11-21T01:47:24;2.93;;;0.70;;
21299;SDS011;10809;49.476;11.016;2022-11-21T01:49:55;1.70;;;0.63;;
21299;SDS011;10809;49.476;11.016;2022-11-21T01:52:27;3.20;;;0.90;;
21299;SDS011;10809;49.476;11.016;2022-11-21T01:55:02;4.40;;;0.70;;
21299;SDS011;10809;49.476;11.016;2022-11-21T01:57:43;1.03;;;0.50;;
21299;SDS011;10809;49.476;11.016;2022-11-21T02:00:22;6.53;;;0.73;;
21299;SDS011;10809;49.476;11.016;2022-11-21T02:02:56;1.90;;;0.77;;
21299;SDS011;10809;49.476;11.016;2022-11-21T02:05:30;1.73;;;0.70;;
21299;SDS011;10809;49.476;11.016;2022-11-21T02:08:15;2.97;;;0.83;;
21299;SDS011;10809;49.476;11.016;2022-11-21T02:10:52;1.80;;;0.70;;
21299;SDS011;10809;49.476;11.016;2022-11-21T02:13:31;0.67;;;0.53;;
21299;SDS011;10809;49.476;11.016;2022-11-21T02:16:02;3.90;;;1.20;;
21299;SDS011;10809;49.476;11.016;2022-11-21T02:18:32;3.97;;;0.63;;
21299;SDS011;10809;49.476;11.016;2022-11-21T02:21:16;3.20;;;0.90;;
21299;SDS011;10809;49.476;11.016;2022-11-21T02:24:03;1.20;;;0.90;;
21299;SDS011;10809;49.476;11.016;2022-11-21T02:26:49;5.87;;;1.60;;
21299;SDS011;10809;49.476;11.016;2022-11-21T02:29:20;0.77;;;0.60;;
21299;SDS011;10809;49.476;11.016;2022-11-21T02:31:51;1.33;;;0.70;;
21299;SDS011;10809;49.476;11.016;2022-11-21T02:34:21;2.93;;;0.80;;
21299;SDS011;10809;49.476;11.016;2022-11-21T02:36:52;2.83;;;1.10;;
21299;SDS011;10809;49.476;11.016;2022-11-21T02:39:25;3.03;;;0.53;;
21299;SDS011;10809;49.476;11.016;2022-11-21T02:42:06;5.07;;;0.53;;
21299;SDS011;10809;49.476;11.016;2022-11-21T02:44:48;1.33;;;0.50;;
21299;SDS011;10809;49.476;11.016;2022-11-21T02:47:25;1.60;;;0.50;;
21299;SDS011;10809;49.476;11.016;2022-11-21T02:49:57;3.47;;;0.60;;
21299;SDS011;10809;49.476;11.016;2022-11-21T02:52:29;3.67;;;0.70;;
21299;SDS011;10809;49.476;11.016;2022-11-21T02:55:00;1.83;;;0.60;;
21299;SDS011;10809;49.476;11.016;2022-11-21T02:57:30;0.60;;;0.40;;
21299;SDS011;10809;49.476;11.016;2022-11-21T03:00:01;1.40;;;0.50;;
21299;SDS011;10809;49.476;11.016;2022-11-21T03:02:32;1.70;;;0.60;;
21299;SDS011;10809;49.476;11.016;2022-11-21T03:05:04;1.17;;;0.47;;
21299;SDS011;10809;49.476;11.016;2022-11-21T03:07:36;1.07;;;0.33;;
21299;SDS011;10809;49.476;11.016;2022-11-21T03:10:06;1.17;;;0.50;;
21299;SDS011;10809;49.476;11.016;2022-11-21T03:12:38;1.27;;;0.40;;
21299;SDS011;10809;49.476;11.016;2022-11-21T03:15:10;1.90;;;0.60;;
21299;SDS011;10809;49.476;11.016;2022-11-21T03:17:46;1.03;;;0.40;;
21299;SDS011;10809;49.476;11.016;2022-11-21T03:20:18;0.60;;;0.60;;
21299;SDS011;10809;49.476;11.016;2022-11-21T03:22:48;2.40;;;0.80;;
21299;SDS011;10809;49.476;11.016;2022-11-21T03:25:19;1.00;;;0.50;;
21299;SDS011;10809;49.476;11.016;2022-11-21T03:27:50;0.50;;;0.50;;
21299;SDS011;10809;49.476;11.016;2022-11-21T03:30:23;2.23;;;0.70;;
21299;SDS011;10809;49.476;11.016;2022-11-21T03:32:54;1.70;;;0.60;;
21299;SDS011;10809;49.476;11.016;2022-11-21T03:35:26;0.97;;;0.43;;
21299;SDS011;10809;49.476;11.016;2022-11-21T03:37:56;1.03;;;0.60;;
21299;SDS011;10809;49.476;11.016;2022-11-21T03:40:26;0.87;;;0.50;;
21299;SDS011;10809;49.476;11.016;2022-11-21T03:43:00;1.50;;;0.60;;
21299;SDS011;10809;49.476;11.016;2022-11-21T03:45:33;0.70;;;0.43;;
21299;SDS011;10809;49.476;11.016;2022-11-21T03:48:03;1.63;;;0.50;;
21299;SDS011;10809;49.476;11.016;2022-11-21T03:50:34;1.27;;;0.70;;
21299;SDS011;10809;49.476;11.016;2022-11-21T03:53:04;0.73;;;0.60;;
21299;SDS011;10809;49.476;11.016;2022-11-21T03:55:34;3.77;;;0.93;;
21299;SDS011;10809;49.476;11.016;2022-11-21T03:58:05;1.00;;;0.50;;
21299;SDS011;10809;49.476;11.016;2022-11-21T04:00:35;3.23;;;0.87;;
21299;SDS011;10809;49.476;11.016;2022-11-21T04:03:05;3.13;;;0.90;;
21299;SDS011;10809;49.476;11.016;2022-11-21T04:05:36;1.60;;;0.60;;
21299;SDS011;10809;49.476;11.016;2022-11-21T04:08:06;0.57;;;0.57;;
21299;SDS011;10809;49.476;11.016;2022-11-21T04:10:37;3.20;;;0.73;;
21299;SDS011;10809;49.476;11.016;2022-11-21T04:13:07;1.17;;;0.77;;
21299;SDS011;10809;49.476;11.016;2022-11-21T04:15:37;2.23;;;0.70;;
21299;SDS011;10809;49.476;11.016;2022-11-21T04:18:10;1.67;;;0.67;;
21299;SDS011;10809;49.476;11.016;2022-11-21T04:20:41;2.93;;;0.67;;
21299;SDS011;10809;49.476;11.016;2022-11-21T04:23:12;2.27;;;0.93;;
21299;SDS011;10809;49.476;11.016;2022-11-21T04:25:42;1.47;;;0.70;;
21299;SDS011;10809;49.476;11.016;2022-11-21T04:28:13;2.50;;;1.00;;
21299;SDS011;10809;49.476;11.016;2022-11-21T04:30:44;0.93;;;0.50;;
21299;SDS011;10809;49.476;11.016;2022-11-21T04:33:14;4.73;;;0.70;;
21299;SDS011;10809;49.476;11.016;2022-11-21T04:35:46;4.20;;;1.20;;
21299;SDS011;10809;49.476;11.016;2022-11-21T04:38:16;1.50;;;0.43;;
21299;SDS011;10809;49.476;11.016;2022-11-21T04:40:47;1.60;;;0.80;;
21299;SDS011;10809;49.476;11.016;2022-11-21T04:43:17;1.10;;;0.80;;
21299;SDS011;10809;49.476;11.016;2022-11-21T04:45:47;0.50;;;0.50;;
21299;SDS011;10809;49.476;11.016;2022-11-21T04:48:18;1.40;;;0.43;;
21299;SDS011;10809;49.476;11.016;2022-11-21T04:50:48;2.23;;;0.43;;
21299;SDS011;10809;49.476;11.016;2022-11-21T04:53:19;1.20;;;0.40;;
21299;SDS011;10809;49.476;11.016;2022-11-21T04:55:49;0.97;;;0.70;;
21299;SDS011;10809;49.476;11.016;2022-11-21T04:58:20;0.73;;;0.50;;
21299;SDS011;10809;49.476;11.016;2022-11-21T05:00:50;2.30;;;0.60;;
21299;SDS011;10809;49.476;11.016;2022-11-21T05:03:21;2.07;;;0.97;;
21299;SDS011;10809;49.476;11.016;2022-11-21T05:05:51;1.13;;;0.60;;
21299;SDS011;10809;49.476;11.016;2022-11-21T05:08:21;3.43;;;0.87;;
21299;SDS011;10809;49.476;11.016;2022-11-21T05:10:52;1.50;;;0.53;;
21299;SDS011;10809;49.476;11.016;2022-11-21T05:13:41;0.73;;;0.57;;
21299;SDS011;10809;49.476;11.016;2022-11-21T05:16:11;3.90;;;0.83;;
21299;SDS011;10809;49.476;11.016;2022-11-21T05:18:41;3.83;;;0.50;;
21299;SDS011;10809;49.476;11.016;2022-11-21T05:21:12;0.40;;;0.40;;
21299;SDS011;10809;49.476;11.016;2022-11-21T05:23:42;3.43;;;0.70;;
21299;SDS011;10809;49.476;11.016;2022-11-21T05:26:12;1.70;;;0.83;;
21299;SDS011;10809;49.476;11.016;2022-11-21T05:28:43;0.77;;;0.50;;
21299;SDS011;10809;49.476;11.016;2022-11-21T05:31:13;1.20;;;0.40;;
21299;SDS011;10809;49.476;11.016;2022-11-21T05:33:43;0.57;;;0.40;;
21299;SDS011;10809;49.476;11.016;2022-11-21T05:36:14;1.20;;;0.60;;
21299;SDS011;10809;49.476;11.016;2022-11-21T05:38:44;1.73;;;1.17;;
21299;SDS011;10809;49.476;11.016;2022-11-21T05:41:17;2.87;;;0.93;;
21299;SDS011;10809;49.476;11.016;2022-11-21T05:43:48;2.03;;;0.60;;
21299;SDS011;10809;49.476;11.016;2022-11-21T05:46:20;0.63;;;0.50;;
21299;SDS011;10809;49.476;11.016;2022-11-21T05:48:52;0.60;;;0.40;;
21299;SDS011;10809;49.476;11.016;2022-11-21T05:51:23;0.50;;;0.40;;
21299;SDS011;10809;49.476;11.016;2022-11-21T05:53:54;2.63;;;0.93;;
21299;SDS011;10809;49.476;11.016;2022-11-21T05:56:24;3.77;;;0.50;;
21299;SDS011;10809;49.476;11.016;2022-11-21T05:58:55;5.23;;;1.00;;
21299;SDS011;10809;49.476;11.016;2022-11-21T06:01:26;1.00;;;0.50;;
21299;SDS011;10809;49.476;11.016;2022-11-21T06:04:15;2.30;;;0.83;;
21299;SDS011;10809;49.476;11.016;2022-11-21T06:06:46;1.80;;;1.53;;
21299;SDS011;10809;49.476;11.016;2022-11-21T06:09:16;3.17;;;1.00;;
21299;SDS011;10809;49.476;11.016;2022-11-21T06:11:47;2.57;;;1.10;;
21299;SDS011;10809;49.476;11.016;2022-11-21T06:14:17;1.40;;;0.93;;
21299;SDS011;10809;49.476;11.016;2022-11-21T06:16:48;1.53;;;0.90;;
21299;SDS011;10809;49.476;11.016;2022-11-21T06:19:19;0.50;;;0.50;;
21299;SDS011;10809;49.476;11.016;2022-11-21T06:21:49;0.87;;;0.50;;
21299;SDS011;10809;49.476;11.016;2022-11-21T06:24:20;0.87;;;0.63;;
21299;SDS011;10809;49.476;11.016;2022-11-21T06:26:50;0.83;;;0.57;;
21299;SDS011;10809;49.476;11.016;2022-11-21T06:29:20;0.77;;;0.30;;
21299;SDS011;10809;49.476;11.016;2022-11-21T06:31:51;0.37;;;0.30;;
21299;SDS011;10809;49.476;11.016;2022-11-21T06:34:21;0.63;;;0.40;;
21299;SDS011;10809;49.476;11.016;2022-11-21T06:36:52;1.03;;;0.57;;
21299;SDS011;10809;49.476;11.016;2022-11-21T06:39:22;1.17;;;0.90;;
21299;SDS011;10809;49.476;11.016;2022-11-21T06:41:52;2.33;;;0.60;;
21299;SDS011;10809;49.476;11.016;2022-11-21T06:44:23;1.40;;;0.67;;
21299;SDS011;10809;49.476;11.016;2022-11-21T06:46:53;0.47;;;0.47;;
21299;SDS011;10809;49.476;11.016;2022-11-21T06:49:24;0.93;;;0.50;;
21299;SDS011;10809;49.476;11.016;2022-11-21T06:51:54;0.47;;;0.47;;
21299;SDS011;10809;49.476;11.016;2022-11-21T06:54:24;1.23;;;0.60;;
21299;SDS011;10809;49.476;11.016;2022-11-21T06:56:55;1.27;;;0.57;;
21299;SDS011;10809;49.476;11.016;2022-11-21T06:59:25;1.40;;;0.87;;
21299;SDS011;10809;49.476;11.016;2022-11-21T07:01:55;1.97;;;0.90;;
21299;SDS011;10809;49.476;11.016;2022-11-21T07:04:26;0.73;;;0.70;;
21299;SDS011;10809;49.476;11.016;2022-11-21T07:06:56;1.57;;;1.10;;
21299;SDS011;10809;49.476;11.016;2022-11-21T07:09:26;2.00;;;1.00;;
21299;SDS011;10809;49.476;11.016;2022-11-21T07:11:57;1.70;;;1.30;;
21299;SDS011;10809;49.476;11.016;2022-11-21T07:14:47;1.13;;;0.80;;
21299;SDS011;10809;49.476;11.016;2022-11-21T07:17:17;2.07;;;1.00;;
21299;SDS011;10809;49.476;11.016;2022-11-21T07:19:48;0.50;;;0.50;;
21299;SDS011;10809;49.476;11.016;2022-11-21T07:22:18;0.90;;;0.90;;
21299;SDS011;10809;49.476;11.016;2022-11-21T07:24:50;1.23;;;1.13;;
21299;SDS011;10809;49.476;11.016;2022-11-21T07:27:20;0.87;;;0.70;;
21299;SDS011;10809;49.476;11.016;2022-11-21T07:29:50;1.30;;;1.07;;
21299;SDS011;10809;49.476;11.016;2022-11-21T07:32:21;1.40;;;0.77;;
21299;SDS011;10809;49.476;11.016;2022-11-21T07:34:51;1.07;;;0.97;;
21299;SDS011;10809;49.476;11.016;2022-11-21T07:37:21;2.47;;;0.80;;
21299;SDS011;10809;49.476;11.016;2022-11-21T07:39:52;0.43;;;0.43;;
21299;SDS011;10809;49.476;11.016;2022-11-21T07:42:22;0.73;;;0.63;;
21299;SDS011;10809;49.476;11.016;2022-11-21T07:44:52;1.50;;;0.60;;
21299;SDS011;10809;49.476;11.016;2022-11-21T07:47:23;2.63;;;0.50;;
21299;SDS011;10809;49.476;11.016;2022-11-21T07:49:53;1.20;;;0.80;;
21299;SDS011;10809;49.476;11.016;2022-11-21T07:52:24;1.23;;;0.80;;
21299;SDS011;10809;49.476;11.016;2022-11-21T07:54:55;0.93;;;0.70;;
21299;SDS011;10809;49.476;11.016;2022-11-21T07:57:26;2.03;;;1.07;;
21299;SDS011;10809;49.476;11.016;2022-11-21T07:59:56;1.10;;;1.00;;
21299;SDS011;10809;49.476;11.016;2022-11-21T08:02:27;1.23;;;0.87;;
21299;SDS011;10809;49.476;11.016;2022-11-21T08:04:57;0.57;;;0.57;;
21299;SDS011;10809;49.476;11.016;2022-11-21T08:07:28;1.87;;;0.80;;
21299;SDS011;10809;49.476;11.016;2022-11-21T08:09:58;0.83;;;0.83;;
21299;SDS011;10809;49.476;11.016;2022-11-21T08:12:30;0.60;;;0.60;;
21299;SDS011;10809;49.476;11.016;2022-11-21T08:15:02;0.63;;;0.60;;
21299;SDS011;10809;49.476;11.016;2022-11-21T08:17:34;1.00;;;0.47;;
21299;SDS011;10809;49.476;11.016;2022-11-21T08:20:05;2.20;;;0.70;;
21299;SDS011;10809;49.476;11.016;2022-11-21T08:22:37;0.80;;;0.80;;
21299;SDS011;10809;49.476;11.016;2022-11-21T08:25:10;0.77;;;0.40;;
21299;SDS011;10809;49.476;11.016;2022-11-21T08:27:41;1.80;;;0.70;;
21299;SDS011;10809;49.476;11.016;2022-11-21T08:30:12;2.43;;;0.70;;
21299;SDS011;10809;49.476;11.016;2022-11-21T08:32:42;1.13;;;0.77;;
21299;SDS011;10809;49.476;11.016;2022-11-21T08:35:13;5.33;;;0.93;;
21299;SDS011;10809;49.476;11.016;2022-11-21T08:37:43;6.07;;;0.50;;
21299;SDS011;10809;49.476;11.016;2022-11-21T08:40:14;3.03;;;0.80;;
21299;SDS011;10809;49.476;11.016;2022-11-21T08:42:44;1.40;;;0.70;;
21299;SDS011;10809;49.476;11.016;2022-11-21T08:45:21;1.27;;;0.67;;
21299;SDS011;10809;49.476;11.016;2022-11-21T08:47:51;0.70;;;0.50;;
21299;SDS011;10809;49.476;11.016;2022-11-21T08:50:22;1.30;;;0.50;;
21299;SDS011;10809;49.476;11.016;2022-11-21T08:52:59;2.73;;;0.70;;
21299;SDS011;10809;49.476;11.016;2022-11-21T08:55:30;0.63;;;0.60;;
21299;SDS011;10809;49.476;11.016;2022-11-21T08:58:01;3.00;;;0.60;;
21299;SDS011;10809;49.476;11.016;2022-11-21T09:00:31;0.77;;;0.70;;
21299;SDS011;10809;49.476;11.016;2022-11-21T09:03:05;0.93;;;0.60;;
21299;SDS011;10809;49.476;11.016;2022-11-21T09:05:35;2.37;;;0.80;;
21299;SDS011;10809;49.476;11.016;2022-11-21T09:08:05;1.93;;;0.70;;
21299;SDS011;10809;49.476;11.016;2022-11-21T09:10:36;0.80;;;0.53;;
21299;SDS011;10809;49.476;11.016;2022-11-21T09:13:06;0.40;;;0.40;;
21299;SDS011;10809;49.476;11.016;2022-11-21T09:15:36;0.73;;;0.50;;
21299;SDS011;10809;49.476;11.016;2022-11-21T09:18:25;0.77;;;0.30;;
21299;SDS011;10809;49.476;11.016;2022-11-21T09:20:56;3.07;;;0.57;;
21299;SDS011;10809;49.476;11.016;2022-11-21T09:23:26;3.40;;;0.80;;
21299;SDS011;10809;49.476;11.016;2022-11-21T09:25:58;2.27;;;0.70;;
21299;SDS011;10809;49.476;11.016;2022-11-21T09:28:29;2.57;;;0.93;;
21299;SDS011;10809;49.476;11.016;2022-11-21T09:31:01;0.80;;;0.80;;
21299;SDS011;10809;49.476;11.016;2022-11-21T09:33:32;0.70;;;0.70;;
21299;SDS011;10809;49.476;11.016;2022-11-21T09:36:02;4.10;;;0.50;;
21299;SDS011;10809;49.476;11.016;2022-11-21T09:38:33;0.63;;;0.63;;
21299;SDS011;10809;49.476;11.016;2022-11-21T09:41:40;2.40;;;1.20;;
21299;SDS011;10809;49.476;11.016;2022-11-21T09:47:23;1.23;;;0.47;;
21299;SDS011;10809;49.476;11.016;2022-11-21T09:50:04;0.70;;;0.70;;
21299;SDS011;10809;49.476;11.016;2022-11-21T09:52:45;2.10;;;0.70;;
21299;SDS011;10809;49.476;11.016;2022-11-21T10:00:53;2.23;;;0.70;;
21299;SDS011;10809;49.476;11.016;2022-11-21T10:03:25;0.50;;;0.50;;
21299;SDS011;10809;49.476;11.016;2022-11-21T10:15:01;1.23;;;0.60;;
21299;SDS011;10809;49.476;11.016;2022-11-21T10:29:49;2.63;;;1.17;;
21299;SDS011;10809;49.476;11.016;2022-11-21T10:32:26;2.53;;;0.90;;
21299;SDS011;10809;49.476;11.016;2022-11-21T10:35:14;1.27;;;0.70;;
21299;SDS011;10809;49.476;11.016;2022-11-21T10:37:59;2.67;;;0.60;;
21299;SDS011;10809;49.476;11.016;2022-11-21T10:40:37;2.93;;;1.03;;
21299;SDS011;10809;49.476;11.016;2022-11-21T10:46:11;0.73;;;0.60;;
21299;SDS011;10809;49.476;11.016;2022-11-21T10:48:41;1.63;;;1.03;;
21299;SDS011;10809;49.476;11.016;2022-11-21T10:53:42;2.83;;;0.80;;
21299;SDS011;10809;49.476;11.016;2022-11-21T10:56:31;1.63;;;0.50;;
21299;SDS011;10809;49.476;11.016;2022-11-21T10:59:10;2.80;;;0.60;;
21299;SDS011;10809;49.476;11.016;2022-11-21T11:04:30;0.40;;;0.40;;
21299;SDS011;10809;49.476;11.016;2022-11-21T11:07:17;2.37;;;0.90;;
21299;SDS011;10809;49.476;11.016;2022-11-21T11:09:51;0.53;;;0.50;;
21299;SDS011;10809;49.476;11.016;2022-11-21T11:12:28;3.03;;;0.70;;
21299;SDS011;10809;49.476;11.016;2022-11-21T11:15:21;0.60;;;0.40;;
21299;SDS011;10809;49.476;11.016;2022-11-21T11:17:56;2.10;;;0.97;;
21299;SDS011;10809;49.476;11.016;2022-11-21T11:20:42;2.10;;;1.03;;
21299;SDS011;10809;49.476;11.016;2022-11-21T11:25:52;1.53;;;0.67;;
21299;SDS011;10809;49.476;11.016;2022-11-21T11:28:24;1.37;;;0.70;;
21299;SDS011;10809;49.476;11.016;2022-11-21T11:30:56;0.77;;;0.77;;
21299;SDS011;10809;49.476;11.016;2022-11-21T11:36:05;0.70;;;0.70;;
21299;SDS011;10809;49.476;11.016;2022-11-21T11:38:42;1.50;;;0.73;;
21299;SDS011;10809;49.476;11.016;2022-11-21T11:47:40;2.10;;;1.20;;
21299;SDS011;10809;49.476;11.016;2022-11-21T11:50:18;2.57;;;0.50;;
21299;SDS011;10809;49.476;11.016;2022-11-21T11:58:24;1.33;;;0.50;;
21299;SDS011;10809;49.476;11.016;2022-11-21T12:03:42;1.07;;;0.63;;
21299;SDS011;10809;49.476;11.016;2022-11-21T12:06:20;0.97;;;0.50;;
21299;SDS011;10809;49.476;11.016;2022-11-21T12:17:50;1.97;;;1.20;;
21299;SDS011;10809;49.476;11.016;2022-11-21T12:20:35;1.03;;;0.97;;
21299;SDS011;10809;49.476;11.016;2022-11-21T12:23:11;1.43;;;1.07;;
21299;SDS011;10809;49.476;11.016;2022-11-21T12:36:59;2.00;;;0.90;;
21299;SDS011;10809;49.476;11.016;2022-11-21T12:39:37;1.43;;;1.00;;
21299;SDS011;10809;49.476;11.016;2022-11-21T12:42:45;2.60;;;1.13;;
21299;SDS011;10809;49.476;11.016;2022-11-21T12:51:53;1.90;;;0.80;;
21299;SDS011;10809;49.476;11.016;2022-11-21T13:06:22;2.90;;;1.10;;
21299;SDS011;10809;49.476;11.016;2022-11-21T13:08:56;2.50;;;0.80;;
21299;SDS011;10809;49.476;11.016;2022-11-21T13:11:42;1.20;;;1.10;;
21299;SDS011;10809;49.476;11.016;2022-11-21T13:19:59;3.30;;;1.17;;
21299;SDS011;10809;49.476;11.016;2022-11-21T13:30:47;2.07;;;0.93;;
21299;SDS011;10809;49.476;11.016;2022-11-21T13:36:49;2.57;;;0.60;;
21299;SDS011;10809;49.476;11.016;2022-11-21T14:05:05;1.30;;;0.40;;
21299;SDS011;10809;49.476;11.016;2022-11-21T14:07:40;3.10;;;0.70;;
21299;SDS011;10809;49.476;11.016;2022-11-21T14:10:17;0.63;;;0.50;;
21299;SDS011;10809;49.476;11.016;2022-11-21T14:12:48;0.97;;;0.57;;
21299;SDS011;10809;49.476;11.016;2022-11-21T14:15:25;0.70;;;0.50;;
21299;SDS011;10809;49.476;11.016;2022-11-21T14:18:04;1.50;;;0.70;;
21299;SDS011;10809;49.476;11.016;2022-11-21T14:20:47;1.10;;;0.63;;
21299;SDS011;10809;49.476;11.016;2022-11-21T14:23:19;0.43;;;0.40;;
21299;SDS011;10809;49.476;11.016;2022-11-21T14:26:01;4.73;;;0.80;;
21299;SDS011;10809;49.476;11.016;2022-11-21T14:28:34;3.93;;;0.83;;
21299;SDS011;10809;49.476;11.016;2022-11-21T14:31:05;2.20;;;0.40;;
21299;SDS011;10809;49.476;11.016;2022-11-21T14:33:37;1.57;;;0.50;;
21299;SDS011;10809;49.476;11.016;2022-11-21T14:36:20;1.50;;;0.60;;
21299;SDS011;10809;49.476;11.016;2022-11-21T14:38:53;1.30;;;0.67;;
21299;SDS011;10809;49.476;11.016;2022-11-21T14:41:27;1.33;;;0.67;;
21299;SDS011;10809;49.476;11.016;2022-11-21T14:46:39;2.40;;;0.50;;
21299;SDS011;10809;49.476;11.016;2022-11-21T14:52:05;5.83;;;0.87;;
21299;SDS011;10809;49.476;11.016;2022-11-21T14:54:46;2.47;;;0.83;;
21299;SDS011;10809;49.476;11.016;2022-11-21T14:57:21;2.23;;;1.10;;
21299;SDS011;10809;49.476;11.016;2022-11-21T14:59:52;5.17;;;0.50;;
21299;SDS011;10809;49.476;11.016;2022-11-21T15:02:27;1.53;;;0.50;;
21299;SDS011;10809;49.476;11.016;2022-11-21T15:05:01;0.77;;;0.60;;
21299;SDS011;10809;49.476;11.016;2022-11-21T15:07:37;1.30;;;0.60;;
21299;SDS011;10809;49.476;11.016;2022-11-21T15:10:16;2.83;;;1.20;;
21299;SDS011;10809;49.476;11.016;2022-11-21T15:13:11;3.87;;;1.87;;
21299;SDS011;10809;49.476;11.016;2022-11-21T15:15:46;5.47;;;1.77;;
21299;SDS011;10809;49.476;11.016;2022-11-21T15:18:24;3.93;;;1.93;;
21299;SDS011;10809;49.476;11.016;2022-11-21T15:20:58;3.63;;;2.20;;
21299;SDS011;10809;49.476;11.016;2022-11-21T15:23:32;3.40;;;1.50;;
21299;SDS011;10809;49.476;11.016;2022-11-21T15:26:31;7.30;;;2.27;;
21299;SDS011;10809;49.476;11.016;2022-11-21T15:29:15;3.07;;;1.70;;
21299;SDS011;10809;49.476;11.016;2022-11-21T15:32:04;3.07;;;2.00;;
21299;SDS011;10809;49.476;11.016;2022-11-21T15:34:44;4.50;;;2.43;;
21299;SDS011;10809;49.476;11.016;2022-11-21T15:37:15;7.23;;;1.63;;
21299;SDS011;10809;49.476;11.016;2022-11-21T15:39:47;2.43;;;1.70;;
21299;SDS011;10809;49.476;11.016;2022-11-21T15:45:16;4.40;;;2.60;;
21299;SDS011;10809;49.476;11.016;2022-11-21T15:47:50;7.47;;;3.07;;
21299;SDS011;10809;49.476;11.016;2022-11-21T15:50:21;4.57;;;3.40;;
21299;SDS011;10809;49.476;11.016;2022-11-21T15:52:53;8.53;;;3.17;;
21299;SDS011;10809;49.476;11.016;2022-11-21T15:55:24;5.00;;;2.90;;
21299;SDS011;10809;49.476;11.016;2022-11-21T15:57:58;5.17;;;2.90;;
21299;SDS011;10809;49.476;11.016;2022-11-21T16:00:28;6.90;;;2.83;;
21299;SDS011;10809;49.476;11.016;2022-11-21T16:02:58;6.73;;;3.20;;
21299;SDS011;10809;49.476;11.016;2022-11-21T16:05:29;6.80;;;3.90;;
21299;SDS011;10809;49.476;11.016;2022-11-21T16:07:59;9.67;;;4.90;;
21299;SDS011;10809;49.476;11.016;2022-11-21T16:10:29;8.37;;;5.17;;
21299;SDS011;10809;49.476;11.016;2022-11-21T16:13:00;7.93;;;5.03;;
21299;SDS011;10809;49.476;11.016;2022-11-21T16:15:32;10.23;;;5.40;;
21299;SDS011;10809;49.476;11.016;2022-11-21T16:18:03;10.90;;;6.00;;
21299;SDS011;10809;49.476;11.016;2022-11-21T16:20:33;14.63;;;6.50;;
21299;SDS011;10809;49.476;11.016;2022-11-21T16:23:04;10.53;;;6.20;;
21299;SDS011;10809;49.476;11.016;2022-11-21T16:25:34;13.27;;;5.73;;
21299;SDS011;10809;49.476;11.016;2022-11-21T16:28:04;11.03;;;5.63;;
21299;SDS011;10809;49.476;11.016;2022-11-21T16:30:37;7.17;;;5.27;;
21299;SDS011;10809;49.476;11.016;2022-11-21T16:33:07;11.87;;;5.70;;
21299;SDS011;10809;49.476;11.016;2022-11-21T16:35:38;8.33;;;4.97;;
21299;SDS011;10809;49.476;11.016;2022-11-21T16:38:08;8.00;;;4.90;;
21299;SDS011;10809;49.476;11.016;2022-11-21T16:40:40;8.83;;;5.60;;
21299;SDS011;10809;49.476;11.016;2022-11-21T16:43:11;8.50;;;4.63;;
21299;SDS011;10809;49.476;11.016;2022-11-21T16:45:42;11.63;;;5.43;;
21299;SDS011;10809;49.476;11.016;2022-11-21T16:48:12;8.30;;;4.60;;
21299;SDS011;10809;49.476;11.016;2022-11-21T16:50:43;9.53;;;5.37;;
21299;SDS011;10809;49.476;11.016;2022-11-21T16:53:13;10.87;;;5.00;;
21299;SDS011;10809;49.476;11.016;2022-11-21T16:55:45;9.73;;;5.40;;
21299;SDS011;10809;49.476;11.016;2022-11-21T16:58:15;7.63;;;4.17;;
21299;SDS011;10809;49.476;11.016;2022-11-21T17:00:45;15.13;;;6.73;;
21299;SDS011;10809;49.476;11.016;2022-11-21T17:03:15;19.50;;;8.23;;
21299;SDS011;10809;49.476;11.016;2022-11-21T17:05:58;11.63;;;6.23;;
21299;SDS011;10809;49.476;11.016;2022-11-21T17:08:29;14.40;;;4.87;;
21299;SDS011;10809;49.476;11.016;2022-11-21T17:11:09;9.97;;;5.03;;
21299;SDS011;10809;49.476;11.016;2022-11-21T17:13:48;9.03;;;4.27;;
21299;SDS011;10809;49.476;11.016;2022-11-21T17:16:20;14.63;;;6.47;;
21299;SDS011;10809;49.476;11.016;2022-11-21T17:18:56;8.80;;;4.07;;
21299;SDS011;10809;49.476;11.016;2022-11-21T17:21:28;7.67;;;4.07;;
21299;SDS011;10809;49.476;11.016;2022-11-21T17:23:59;9.73;;;5.23;;
21299;SDS011;10809;49.476;11.016;2022-11-21T17:26:29;11.57;;;5.73;;
21299;SDS011;10809;49.476;11.016;2022-11-21T17:29:00;14.37;;;6.07;;
21299;SDS011;10809;49.476;11.016;2022-11-21T17:31:32;15.37;;;5.80;;
21299;SDS011;10809;49.476;11.016;2022-11-21T17:34:02;13.47;;;6.90;;
21299;SDS011;10809;49.476;11.016;2022-11-21T17:36:33;11.63;;;5.37;;